Time;durP1;ratioP1;P1;durP2;ratioP2;P2;SDS_P1;SDS_P2;PMS_P1;PMS_P2;Temp;Humidity;BMP_temperature;BMP_pressure;BME280_temperature;BME280_humidity;BME280_pressure;Samples;Min_cycle;Max_cycle;Signal;HPM_P1;HPM_P2
2022/12/09 00:00:30;;;;;;;45.13;15.75;;;;;;;-1.88;65.42;100076.59;5081354;28;20039;-91
2022/12/09 00:02:57;;;;;;;35.63;14.52;;;;;;;-1.67;65.72;100137.91;5074132;27;20027;-91
2022/12/09 00:05:25;;;;;;;41.90;16.27;;;;;;;-1.86;66.01;100135.31;5117123;27;20087;-91
2022/12/09 00:07:51;;;;;;;38.83;15.15;;;;;;;-2.35;66.19;100054.50;5150756;27;20071;-91
2022/12/09 00:10:17;;;;;;;35.47;14.93;;;;;;;-1.84;66.48;100168.91;5086072;28;20139;-91
2022/12/09 00:12:44;;;;;;;34.05;14.57;;;;;;;-1.65;66.83;100196.69;5087276;28;20047;-91
2022/12/09 00:15:12;;;;;;;24.95;11.68;;;;;;;-2.34;66.98;100120.41;5105197;28;20069;-92
2022/12/09 00:17:40;;;;;;;36.58;15.77;;;;;;;-1.82;67.27;100177.56;5074935;28;20079;-92
2022/12/09 00:20:06;;;;;;;36.25;15.82;;;;;;;-1.99;66.85;100142.34;5097090;28;20626;-90
2022/12/09 00:22:33;;;;;;;28.40;13.13;;;;;;;-2.01;66.74;100144.44;5096167;28;20036;-92
2022/12/09 00:24:59;;;;;;;38.67;15.82;;;;;;;-2.51;67.53;100089.75;5079627;28;20047;-91
2022/12/09 00:27:26;;;;;;;40.05;16.33;;;;;;;-2.33;67.50;100118.53;5063525;28;20130;-89
2022/12/09 00:29:52;;;;;;;36.78;15.27;;;;;;;-2.37;67.73;100102.06;5064600;28;20060;-89
2022/12/09 00:32:18;;;;;;;36.65;14.60;;;;;;;-2.24;67.73;100130.69;5059660;28;20034;-91
2022/12/09 00:34:45;;;;;;;38.58;16.45;;;;;;;-2.07;67.67;100163.22;5087148;27;20436;-91
2022/12/09 00:37:12;;;;;;;39.08;15.05;;;;;;;-1.69;67.22;100190.94;5081402;27;20035;-92
2022/12/09 00:39:39;;;;;;;38.58;15.45;;;;;;;-1.92;66.61;100118.22;5049775;28;20177;-90
2022/12/09 00:42:05;;;;;;;38.35;14.80;;;;;;;-1.70;66.36;100149.06;5132295;27;20510;-90
2022/12/09 00:44:32;;;;;;;39.10;15.65;;;;;;;-1.62;66.93;100190.06;5122821;27;20432;-90
2022/12/09 00:46:58;;;;;;;37.75;15.32;;;;;;;-1.67;67.41;100196.91;5124981;27;20035;-90
2022/12/09 00:49:24;;;;;;;40.40;16.42;;;;;;;-2.25;67.52;100112.94;5157074;27;20054;-90
2022/12/09 00:51:52;;;;;;;33.53;15.02;;;;;;;-1.59;67.16;100195.88;5109629;27;20046;-89
2022/12/09 00:54:19;;;;;;;36.45;16.23;;;;;;;-2.05;67.02;100118.25;5106775;27;20039;-90
2022/12/09 00:56:45;;;;;;;35.88;15.88;;;;;;;-1.99;66.82;100120.91;5104544;27;20125;-90
2022/12/09 00:59:11;;;;;;;40.85;16.00;;;;;;;-1.54;66.85;100203.25;5124316;27;20099;-89
2022/12/09 01:01:37;;;;;;;34.50;14.95;;;;;;;-1.76;66.34;100155.28;5124014;27;20035;-90
2022/12/09 01:04:07;;;;;;;40.20;17.25;;;;;;;-1.60;67.20;100178.09;5103789;27;20072;-88
2022/12/09 01:06:33;;;;;;;38.85;16.48;;;;;;;-1.55;66.39;100166.75;5084473;27;20469;-89
2022/12/09 01:09:02;;;;;;;37.90;16.13;;;;;;;-1.53;66.38;100172.72;5102732;27;20170;-90
2022/12/09 01:11:29;;;;;;;41.58;16.10;;;;;;;-1.90;66.47;100140.28;5100609;27;20412;-90
2022/12/09 01:13:59;;;;;;;45.83;16.73;;;;;;;-1.80;66.39;100123.75;5098061;27;20503;-90
2022/12/09 01:16:29;;;;;;;37.25;15.60;;;;;;;-1.42;66.24;100172.06;5103329;27;20041;-91
2022/12/09 01:19:02;;;;;;;34.20;15.20;;;;;;;-1.83;66.26;100141.06;5131925;27;20050;-89
2022/12/09 01:21:31;;;;;;;44.50;16.40;;;;;;;-1.88;67.05;100154.28;5158218;27;20031;-88
2022/12/09 01:23:58;;;;;;;45.85;17.40;;;;;;;-1.96;67.06;100143.78;5122127;27;20119;-89
2022/12/09 01:26:24;;;;;;;41.73;15.63;;;;;;;-1.83;66.86;100164.38;5135093;27;20031;-90
2022/12/09 01:28:51;;;;;;;43.95;17.10;;;;;;;-1.69;67.24;100171.31;5095254;28;20300;-90
2022/12/09 01:31:20;;;;;;;38.72;16.98;;;;;;;-1.79;67.21;100155.69;5096756;27;20496;-90
2022/12/09 01:33:46;;;;;;;46.40;15.88;;;;;;;-1.52;67.32;100191.28;5101719;28;20043;-91
2022/12/09 01:36:23;;;;;;;43.65;17.63;;;;;;;-1.99;67.45;100122.78;5103943;27;20046;-91
2022/12/09 01:38:49;;;;;;;41.83;16.05;;;;;;;-1.61;67.44;100178.34;5101007;28;20128;-90
2022/12/09 01:41:18;;;;;;;39.20;18.08;;;;;;;-1.85;67.69;100150.34;5067912;28;20040;-89
2022/12/09 01:43:44;;;;;;;40.70;16.45;;;;;;;-2.15;67.35;100087.41;5062397;28;20043;-91
2022/12/09 01:46:11;;;;;;;42.58;16.77;;;;;;;-1.48;66.98;100173.75;5059565;28;20052;-89
2022/12/09 01:48:42;;;;;;;44.38;17.20;;;;;;;-1.62;67.08;100137.31;5089465;28;20200;-90
2022/12/09 01:51:15;;;;;;;42.58;16.70;;;;;;;-1.54;66.78;100141.59;5080944;28;20504;-91
2022/12/09 01:53:44;;;;;;;45.50;17.70;;;;;;;-1.82;66.93;100102.53;5083563;28;20555;-89
2022/12/09 01:56:17;;;;;;;44.10;16.70;;;;;;;-1.31;67.06;100171.38;5054237;28;20261;-90
2022/12/09 01:58:44;;;;;;;51.70;17.40;;;;;;;-1.89;67.13;100101.72;5087039;28;20052;-90
2022/12/09 02:01:10;;;;;;;41.35;15.68;;;;;;;-1.71;67.71;100138.56;5068910;28;20461;-91
2022/12/09 02:03:37;;;;;;;50.38;18.90;;;;;;;-1.46;68.19;100152.06;5067283;28;20058;-90
2022/12/09 02:06:03;;;;;;;44.40;17.33;;;;;;;-1.35;66.98;100132.63;5024021;28;20045;-91
2022/12/09 02:08:29;;;;;;;41.17;17.27;;;;;;;-1.47;66.71;100132.47;5044929;28;20049;-91
2022/12/09 02:11:12;;;;;;;47.63;18.85;;;;;;;-1.81;66.65;100053.25;5055720;28;20056;-92
2022/12/09 02:14:21;;;;;;;45.33;17.83;;;;;;;-1.76;65.91;100036.53;5072267;28;20044;-91
2022/12/09 02:17:31;;;;;;;42.47;18.15;;;;;;;-0.68;65.32;100184.00;5047282;28;20770;-91
2022/12/09 02:20:15;;;;;;;43.22;17.35;;;;;;;-0.89;64.95;100150.28;5106717;28;20071;-90
2022/12/09 02:22:46;;;;;;;42.80;17.42;;;;;;;-0.63;64.72;100170.75;5049729;28;20036;-91
2022/12/09 02:25:41;;;;;;;39.67;15.90;;;;;;;-1.47;64.43;100038.63;5075935;28;20040;-90
2022/12/09 02:28:34;;;;;;;45.13;17.40;;;;;;;-0.62;64.65;100174.25;5071075;28;20032;-91
2022/12/09 02:31:26;;;;;;;34.88;15.32;;;;;;;-0.64;64.72;100179.84;5058380;28;20039;-89
2022/12/09 02:34:05;;;;;;;40.35;17.30;;;;;;;-0.71;64.84;100179.06;5099594;28;20092;-90
2022/12/09 02:36:42;;;;;;;40.55;17.27;;;;;;;-0.84;64.87;100147.78;5100792;28;20031;-91
2022/12/09 02:39:09;;;;;;;46.38;17.40;;;;;;;-0.86;64.78;100152.56;5093643;27;20055;-91
2022/12/09 02:41:40;;;;;;;44.38;18.55;;;;;;;-0.61;64.72;100174.03;5118126;27;20118;-89
2022/12/09 02:44:16;;;;;;;47.25;17.95;;;;;;;-0.84;65.09;100155.81;5081928;28;20042;-91
2022/12/09 02:46:44;;;;;;;48.28;19.92;;;;;;;-0.83;65.58;100176.28;5082586;28;20084;-88
2022/12/09 02:49:13;;;;;;;48.08;19.42;;;;;;;-1.23;66.07;100103.25;5083637;28;20032;-89
2022/12/09 02:51:44;;;;;;;56.67;19.92;;;;;;;-1.49;65.85;100053.28;5125088;27;20054;-91
2022/12/09 02:54:15;;;;;;;49.00;19.70;;;;;;;-1.57;66.05;100046.31;5103893;28;20524;-89
2022/12/09 02:56:55;;;;;;;57.17;21.05;;;;;;;-1.11;65.59;100096.16;5103897;28;20504;-90
2022/12/09 02:59:24;;;;;;;52.67;19.92;;;;;;;-0.89;65.70;100131.50;5102947;28;20036;-90
2022/12/09 03:02:04;;;;;;;55.28;19.02;;;;;;;-0.58;65.82;100175.47;5095402;28;20039;-88
2022/12/09 03:04:31;;;;;;;57.20;21.08;;;;;;;-1.07;65.93;100096.53;5138825;27;20032;-88
2022/12/09 03:07:23;;;;;;;60.63;22.38;;;;;;;-1.07;65.76;100093.84;5117662;28;20039;-88
2022/12/09 03:09:57;;;;;;;51.75;21.17;;;;;;;-0.78;65.71;100112.00;5110753;28;20059;-89
2022/12/09 03:12:29;;;;;;;60.42;21.98;;;;;;;-1.24;65.53;100048.78;5106931;28;20099;-89
2022/12/09 03:14:57;;;;;;;53.22;20.77;;;;;;;-1.02;65.84;100102.91;5120312;28;20102;-90
2022/12/09 03:17:31;;;;;;;57.10;20.55;;;;;;;-1.16;65.83;100079.88;5101506;28;20040;-89
2022/12/09 03:20:24;;;;;;;57.53;21.45;;;;;;;-0.58;66.07;100154.81;5084402;28;20055;-90
2022/12/09 03:22:56;;;;;;;51.03;21.48;;;;;;;-1.06;65.82;100087.44;5084356;28;20036;-92
2022/12/09 03:25:29;;;;;;;61.85;22.58;;;;;;;-1.16;65.49;100066.47;5105452;28;20036;-90
2022/12/09 03:28:03;;;;;;;55.60;21.17;;;;;;;-0.89;66.03;100123.47;5081147;28;20134;-90
2022/12/09 03:30:36;;;;;;;55.20;20.90;;;;;;;-1.12;66.11;100069.56;5099338;28;20059;-90
2022/12/09 03:33:03;;;;;;;56.72;20.75;;;;;;;-1.04;66.17;100082.69;5085194;28;20032;-91
2022/12/09 03:35:36;;;;;;;56.53;22.05;;;;;;;-1.08;66.01;100065.38;5085633;28;20077;-91
2022/12/09 03:38:06;;;;;;;51.13;21.27;;;;;;;-1.13;66.13;100059.84;5103877;27;20047;-90
2022/12/09 03:40:35;;;;;;;58.60;23.05;;;;;;;-1.16;66.31;100062.97;5114928;27;20039;-89
2022/12/09 03:43:07;;;;;;;63.50;21.15;;;;;;;-1.00;66.25;100079.34;5085284;28;20483;-90
2022/12/09 03:45:33;;;;;;;73.05;22.83;;;;;;;-0.57;66.46;100142.19;5087206;27;20050;-92
2022/12/09 03:48:01;;;;;;;59.87;23.20;;;;;;;-1.20;66.42;100043.78;5080113;28;20446;-89
2022/12/09 03:50:33;;;;;;;66.35;22.55;;;;;;;-0.90;66.61;100107.56;5083396;27;20039;-91
2022/12/09 03:53:15;;;;;;;66.75;23.42;;;;;;;-0.67;66.95;100134.63;5095519;28;20050;-91
2022/12/09 03:55:47;;;;;;;61.20;22.13;;;;;;;-0.56;66.87;100142.00;5075068;27;20031;-89
2022/12/09 03:58:15;;;;;;;65.88;23.02;;;;;;;-0.71;66.85;100109.25;5105894;28;20048;-91
2022/12/09 04:00:43;;;;;;;67.75;24.13;;;;;;;-0.41;66.29;100154.25;5083965;28;20540;-91
2022/12/09 04:03:13;;;;;;;61.20;22.92;;;;;;;-1.03;66.33;100061.00;5099945;28;20047;-91
2022/12/09 04:05:41;;;;;;;59.95;22.20;;;;;;;-0.67;66.50;100128.44;5102395;28;20043;-91
2022/12/09 04:08:08;;;;;;;68.80;23.35;;;;;;;-0.60;66.70;100143.44;5118563;28;20043;-90
2022/12/09 04:10:34;;;;;;;56.58;22.58;;;;;;;-0.72;66.78;100123.75;5079698;28;20043;-90
2022/12/09 04:13:01;;;;;;;59.10;22.20;;;;;;;-1.33;67.20;100043.88;5086587;28;20044;-91
2022/12/09 04:15:27;;;;;;;64.20;22.10;;;;;;;-0.98;67.37;100087.19;5087791;28;20043;-92
2022/12/09 04:17:54;;;;;;;63.95;21.65;;;;;;;-1.23;67.01;100039.69;5079621;28;20051;-89
2022/12/09 04:20:20;;;;;;;60.90;22.85;;;;;;;-1.05;66.71;100059.59;5080688;28;20040;-90
2022/12/09 04:22:46;;;;;;;62.70;22.35;;;;;;;-1.35;66.64;100016.47;5097018;28;20046;-89
2022/12/09 04:25:12;;;;;;;55.72;21.67;;;;;;;-1.12;66.63;100050.78;5108180;28;20061;-89
2022/12/09 04:27:39;;;;;;;58.20;21.73;;;;;;;-1.09;66.59;100056.53;5124699;28;20107;-89
2022/12/09 04:30:06;;;;;;;55.85;21.58;;;;;;;-0.97;66.83;100081.59;5106771;28;20042;-92
2022/12/09 04:32:33;;;;;;;65.90;22.13;;;;;;;-0.90;66.75;100088.78;5106646;28;20036;-90
2022/12/09 04:35:02;;;;;;;51.50;21.25;;;;;;;-1.22;67.05;100048.56;5088243;28;20059;-91
2022/12/09 04:37:29;;;;;;;54.00;22.35;;;;;;;-1.24;66.67;100050.63;5071463;28;20048;-91
2022/12/09 04:39:55;;;;;;;59.05;22.83;;;;;;;-0.93;66.83;100099.94;5121053;27;20051;-91
2022/12/09 04:42:22;;;;;;;62.67;22.42;;;;;;;-0.77;66.98;100129.75;5115374;27;20056;-91
2022/12/09 04:44:48;;;;;;;72.43;23.75;;;;;;;-1.28;66.80;100036.03;5129412;27;20059;-90
2022/12/09 04:47:15;;;;;;;60.10;22.02;;;;;;;-0.59;66.89;100131.69;5111012;27;20042;-91
2022/12/09 04:49:41;;;;;;;65.30;22.15;;;;;;;-1.21;66.56;100037.59;5109611;27;20039;-91
2022/12/09 04:52:07;;;;;;;56.92;21.35;;;;;;;-1.43;66.86;100012.19;5111625;27;20072;-91
2022/12/09 04:54:33;;;;;;;62.15;21.77;;;;;;;-1.26;67.60;100055.38;5147899;27;20035;-93
2022/12/09 04:56:59;;;;;;;59.55;21.65;;;;;;;-1.20;67.97;100063.38;5124451;27;20018;-89
2022/12/09 04:59:27;;;;;;;65.57;23.58;;;;;;;-1.09;68.25;100087.88;5140877;27;20046;-91
2022/12/09 05:01:55;;;;;;;65.05;23.25;;;;;;;-1.27;67.86;100043.03;5138196;27;20038;-90
2022/12/09 05:04:21;;;;;;;61.05;22.27;;;;;;;-1.35;67.39;100016.47;5111065;27;20038;-90
2022/12/09 05:06:47;;;;;;;56.47;21.95;;;;;;;-1.43;67.55;100015.69;5140947;27;20038;-92
2022/12/09 05:09:13;;;;;;;59.45;22.55;;;;;;;-1.07;67.78;100089.31;5108006;27;20060;-91
2022/12/09 05:11:40;;;;;;;65.28;21.55;;;;;;;-1.21;68.10;100048.34;5105545;27;20570;-88
2022/12/09 05:14:06;;;;;;;59.65;23.40;;;;;;;-0.78;67.76;100112.00;5102171;27;20091;-90
2022/12/09 05:16:33;;;;;;;53.85;21.88;;;;;;;-1.24;67.82;100067.56;5138932;27;20091;-90
2022/12/09 05:19:00;;;;;;;60.45;22.13;;;;;;;-0.71;67.92;100122.69;5104903;27;20034;-90
2022/12/09 05:21:26;;;;;;;55.53;21.23;;;;;;;-1.43;67.59;99998.78;5105437;27;20185;-91
2022/12/09 05:23:52;;;;;;;55.23;21.93;;;;;;;-1.06;67.46;100053.41;5104639;27;20069;-91
2022/12/09 05:26:20;;;;;;;55.58;21.50;;;;;;;-0.82;66.80;100093.88;5130755;27;20472;-91
2022/12/09 05:28:46;;;;;;;54.75;21.20;;;;;;;-1.02;66.95;100048.41;5119428;28;20047;-92
2022/12/09 05:31:15;;;;;;;54.80;21.65;;;;;;;-0.55;66.69;100119.44;5098056;27;20475;-90
2022/12/09 05:33:43;;;;;;;65.00;21.20;;;;;;;-0.88;66.35;100055.31;5121063;27;20511;-91
2022/12/09 05:36:11;;;;;;;56.95;21.90;;;;;;;-0.73;66.52;100081.81;5119358;28;20449;-94
2022/12/09 05:38:38;;;;;;;51.25;21.75;;;;;;;-1.10;66.29;100001.19;5121084;28;20054;-91
2022/12/09 05:41:07;;;;;;;67.40;21.83;;;;;;;-0.85;66.50;100073.66;5125659;27;20039;-92
2022/12/09 05:43:35;;;;;;;67.72;22.75;;;;;;;-0.97;66.90;100035.16;5125515;27;20042;-93
2022/12/09 05:46:05;;;;;;;58.45;24.20;;;;;;;-0.42;66.37;100098.91;5140014;27;20159;-92
2022/12/09 05:48:31;;;;;;;61.42;23.27;;;;;;;-1.15;66.06;99984.13;5109872;27;20057;-90
2022/12/09 05:51:06;;;;;;;50.73;21.03;;;;;;;-0.67;65.55;100037.97;5109998;27;20038;-90
2022/12/09 05:53:33;;;;;;;55.63;23.08;;;;;;;-0.41;65.58;100074.47;5111779;27;20058;-90
2022/12/09 05:55:59;;;;;;;52.50;22.83;;;;;;;-0.58;65.12;100046.56;5114440;27;20038;-93
2022/12/09 05:58:25;;;;;;;53.78;22.05;;;;;;;-0.38;65.29;100071.34;5119592;27;20045;-90
2022/12/09 06:00:55;;;;;;;53.88;21.95;;;;;;;-0.50;65.36;100073.13;5092023;27;20130;-91
2022/12/09 06:03:22;;;;;;;57.22;21.45;;;;;;;-0.41;65.83;100079.84;5092008;27;20053;-90
2022/12/09 06:05:48;;;;;;;51.75;22.17;;;;;;;-0.51;65.48;100052.69;5135610;27;20462;-90
2022/12/09 06:08:15;;;;;;;55.50;21.08;;;;;;;-0.71;65.29;100037.59;5092899;27;20515;-91
2022/12/09 06:10:41;;;;;;;48.73;21.10;;;;;;;-1.05;65.19;99987.97;5099651;27;20030;-89
2022/12/09 06:13:08;;;;;;;48.67;20.52;;;;;;;-1.06;65.58;99993.53;5145191;27;20034;-91
2022/12/09 06:15:34;;;;;;;46.30;19.98;;;;;;;-0.71;65.89;100053.69;5108385;27;20093;-91
2022/12/09 06:18:01;;;;;;;48.72;21.92;;;;;;;-0.99;65.95;100003.19;5100409;27;20051;-92
2022/12/09 06:20:27;;;;;;;52.95;21.23;;;;;;;-0.84;65.66;100010.88;5090617;27;20063;-90
2022/12/09 06:22:53;;;;;;;45.35;21.23;;;;;;;-0.51;66.12;100079.53;5112297;27;20133;-90
2022/12/09 06:25:19;;;;;;;50.30;21.27;;;;;;;-1.31;66.07;99961.34;5144345;27;20039;-91
2022/12/09 06:27:45;;;;;;;43.65;20.88;;;;;;;-1.26;65.96;99959.66;5108850;27;20224;-92
2022/12/09 06:30:11;;;;;;;45.78;20.63;;;;;;;-1.05;65.84;100017.47;5126658;27;20034;-91
2022/12/09 06:32:39;;;;;;;43.75;20.35;;;;;;;-1.16;65.96;99969.06;5110784;27;20097;-92
2022/12/09 06:35:06;;;;;;;;;;;;;;;-0.40;65.59;100096.78;5091717;27;20043;-90
2022/12/09 06:37:32;;;;;;;43.53;20.08;;;;;;;-0.99;65.83;100021.97;5124069;27;19919;-90
2022/12/09 06:39:58;;;;;;;44.53;19.27;;;;;;;-1.16;65.95;100018.16;5130965;27;20030;-90
2022/12/09 06:42:24;;;;;;;46.47;20.48;;;;;;;-0.91;66.52;100045.00;5111937;27;20046;-89
2022/12/09 06:44:54;;;;;;;47.53;21.50;;;;;;;-1.11;66.36;100015.66;5107679;27;20111;-88
2022/12/09 06:48:14;;;;;;;48.05;19.92;;;;;;;-0.40;65.85;100092.22;5122522;27;20035;-92
2022/12/09 06:50:40;;;;;;;43.97;20.80;;;;;;;-0.66;65.80;100071.84;5102900;27;20091;-89
2022/12/09 06:53:08;;;;;;;46.83;19.70;;;;;;;-0.73;65.51;100045.06;5155627;27;20035;-91
2022/12/09 06:56:20;;;;;;;41.08;20.55;;;;;;;-0.68;66.11;100079.28;5130846;27;20070;-88
2022/12/09 06:59:06;;;;;;;40.15;18.50;;;;;;;-0.78;66.46;100046.75;5116353;27;20074;-91
2022/12/09 07:02:18;;;;;;;39.17;19.30;;;;;;;-0.74;67.06;100058.69;5076607;28;20041;-91
2022/12/09 07:05:00;;;;;;;36.65;18.40;;;;;;;-0.93;66.50;100035.53;5074329;28;20283;-89
2022/12/09 07:07:26;;;;;;;46.45;20.33;;;;;;;-0.89;66.49;100055.50;5059741;28;20059;-89
2022/12/09 07:10:10;;;;;;;53.17;20.05;;;;;;;-0.64;66.64;100067.06;5093566;28;20044;-93
2022/12/09 07:13:34;;;;;;;46.15;20.48;;;;;;;-0.53;66.25;100097.72;5079557;28;20044;-90
2022/12/09 07:16:00;;;;;;;50.28;22.70;;;;;;;-1.13;66.18;99980.16;5079933;28;20047;-88
2022/12/09 07:18:39;;;;;;;48.22;20.52;;;;;;;-1.37;65.97;99940.78;5065856;28;20036;-88
2022/12/09 07:21:07;;;;;;;48.83;21.95;;;;;;;-1.04;65.84;100015.59;5069886;28;20045;-88
2022/12/09 07:23:35;;;;;;;49.35;21.15;;;;;;;-0.77;65.82;100032.28;5022387;28;20045;-87
2022/12/09 07:26:52;;;;;;;46.60;21.30;;;;;;;-0.39;65.58;100071.59;5017376;22;20045;-88
2022/12/09 07:29:44;;;;;;;51.88;23.30;;;;;;;-0.41;65.80;100082.53;5069930;28;20054;-90
2022/12/09 07:32:10;;;;;;;53.30;22.73;;;;;;;-1.03;65.63;99990.41;5079073;28;20055;-89
2022/12/09 07:39:20;;;;;;;49.45;21.27;;;;;;;-0.64;66.12;100068.94;5079933;28;20183;-88
2022/12/09 07:42:32;;;;;;;48.13;20.50;;;;;;;-0.36;65.78;100098.00;5089143;28;20032;-89
2022/12/09 07:45:34;;;;;;;44.55;19.92;;;;;;;-0.79;65.85;100035.19;4931041;28;20051;-89
2022/12/09 07:48:16;;;;;;;44.28;19.63;;;;;;;-0.51;66.28;100091.09;4967154;28;20101;-88
2022/12/09 07:51:02;;;;;;;42.25;19.83;;;;;;;-0.87;66.54;100038.16;5004707;28;20126;-90
2022/12/09 07:54:18;;;;;;;46.33;18.80;;;;;;;-0.74;66.88;100080.16;4982079;28;20194;-89
2022/12/09 07:57:51;;;;;;;43.22;18.98;;;;;;;-0.68;67.46;100073.09;4981829;28;20054;-89
2022/12/09 08:00:31;;;;;;;44.63;18.60;;;;;;;-1.08;67.59;99987.56;4972581;28;20076;-87
2022/12/09 08:02:57;;;;;;;48.22;20.45;;;;;;;-1.39;67.39;99948.22;5048496;22;20041;-90
2022/12/09 08:05:27;;;;;;;45.67;19.35;;;;;;;-1.05;67.13;99966.50;5060737;28;20086;-89
2022/12/09 08:10:45;;;;;;;46.80;19.33;;;;;;;-1.22;67.09;99927.88;5047957;28;20033;-88
2022/12/09 08:13:11;;;;;;;52.20;21.30;;;;;;;-0.96;66.90;99957.13;5033624;22;20614;-90
2022/12/09 08:16:19;;;;;;;45.10;19.70;;;;;;;-0.31;67.16;100047.09;5066386;28;20047;-90
2022/12/09 08:18:55;;;;;;;45.60;18.90;;;;;;;-0.88;67.08;100004.31;5072327;22;20066;-90
2022/12/09 08:21:25;;;;;;;46.17;19.27;;;;;;;-1.23;68.24;99937.75;5083301;28;20573;-88
2022/12/09 08:23:52;;;;;;;49.38;20.27;;;;;;;-0.79;67.55;99994.94;5067257;28;20096;-89
2022/12/09 08:26:23;;;;;;;59.53;27.45;;;;;;;-1.10;67.77;99939.47;5087032;28;20034;-89
2022/12/09 08:29:09;;;;;;;51.92;21.67;;;;;;;-0.61;67.88;100025.53;5104304;28;20063;-90
2022/12/09 08:32:10;;;;;;;56.78;21.35;;;;;;;-0.47;67.88;100027.03;5087208;28;20040;-88
2022/12/09 08:34:43;;;;;;;46.83;18.83;;;;;;;-1.14;67.08;99883.81;5102227;28;20036;-89
2022/12/09 08:38:04;;;;;;;42.85;18.45;;;;;;;-0.48;67.34;100001.22;5096145;28;20040;-88
2022/12/09 08:40:46;;;;;;;51.25;20.25;;;;;;;-0.89;67.33;99932.91;5097628;28;20039;-89
2022/12/09 08:43:38;;;;;;;58.53;21.23;;;;;;;-0.40;67.45;100000.09;5094849;28;20028;-90
2022/12/09 08:55:02;;;;;;;54.70;19.30;;;;;;;-1.26;67.38;99897.97;1303401;22;20462;-88
2022/12/09 08:58:08;;;;;;;41.65;19.30;;;;;;;-1.02;66.93;99911.56;4998638;28;20037;-88
2022/12/09 09:00:50;;;;;;;43.17;18.38;;;;;;;-0.58;66.91;99955.28;5034266;23;20083;-88
2022/12/09 09:04:19;;;;;;;46.55;19.95;;;;;;;-0.31;66.30;99972.69;5015877;28;20041;-88
2022/12/09 09:09:51;;;;;;;41.85;18.40;;;;;;;-0.31;65.93;99971.88;3164351;26;20510;-88
2022/12/09 09:12:17;;;;;;;43.85;18.65;;;;;;;-0.73;65.65;99885.81;5034526;28;20041;-90
2022/12/09 09:17:33;;;;;;;51.13;19.08;;;;;;;-0.65;64.75;99831.84;4943458;29;20745;-92
2022/12/09 09:20:00;;;;;;;42.30;18.73;;;;;;;-0.13;64.54;99912.75;4956740;29;20382;-90
2022/12/09 09:23:07;;;;;;;;;;;;;;;0.11;64.62;99958.53;4979863;23;20100;-88
2022/12/09 09:25:43;;;;;;;53.88;21.60;;;;;;;-0.38;64.99;99875.28;4972255;28;20018;-87
2022/12/09 09:28:19;;;;;;;45.88;22.05;;;;;;;-0.47;64.80;99852.44;4984062;28;20038;-87
2022/12/09 09:31:25;;;;;;;51.03;21.90;;;;;;;0.32;64.61;99952.63;4994441;28;20053;-88
2022/12/09 09:33:55;;;;;;;43.05;21.27;;;;;;;0.02;63.84;99914.19;4993617;23;20042;-87
2022/12/09 09:36:25;;;;;;;50.20;20.83;;;;;;;-0.52;63.64;99820.91;4949891;28;20096;-89
2022/12/09 09:38:58;;;;;;;44.95;19.63;;;;;;;-0.24;63.87;99876.72;4968443;28;20054;-89
2022/12/09 09:42:27;;;;;;;45.85;20.67;;;;;;;0.20;63.57;99933.78;4954312;28;20097;-86
2022/12/09 09:45:48;;;;;;;48.08;20.08;;;;;;;0.29;63.79;99928.88;4948799;28;20157;-90
2022/12/09 09:48:35;;;;;;;40.92;18.65;;;;;;;0.11;63.63;99884.06;4948164;28;20472;-90
2022/12/09 09:54:56;;;;;;;48.80;18.58;;;;;;;0.51;62.39;99918.41;4949530;28;20134;-88
2022/12/09 09:58:18;;;;;;;49.55;19.45;;;;;;;0.31;62.89;99910.66;4946630;28;20046;-87
2022/12/09 10:01:06;;;;;;;38.88;18.42;;;;;;;0.38;62.82;99905.97;4941601;28;20078;-88
2022/12/09 10:04:07;;;;;;;41.55;19.20;;;;;;;0.51;62.07;99904.94;4951980;28;20038;-88
2022/12/09 10:07:01;;;;;;;43.58;18.75;;;;;;;0.56;62.64;99907.75;4955332;29;20047;-86
2022/12/09 10:10:19;;;;;;;36.13;17.10;;;;;;;0.43;62.19;99899.91;4959424;28;20035;-91
2022/12/09 10:13:36;;;;;;;38.55;17.55;;;;;;;0.35;62.26;99876.06;4943598;28;20047;-88
2022/12/09 10:16:23;;;;;;;36.50;17.92;;;;;;;0.29;61.93;99834.75;4972391;23;20070;-90
2022/12/09 10:19:26;;;;;;;40.00;18.20;;;;;;;0.64;61.86;99903.91;4992837;28;20530;-88
2022/12/09 10:22:25;;;;;;;37.67;17.83;;;;;;;0.67;61.51;99898.06;4942050;29;20106;-88
2022/12/09 10:28:20;;;;;;;43.13;18.10;;;;;;;0.76;61.51;99890.44;5059947;28;20045;-89
2022/12/09 10:31:03;;;;;;;37.10;18.38;;;;;;;0.76;60.56;99874.31;5044039;28;20212;-86
2022/12/09 10:33:48;;;;;;;36.08;17.17;;;;;;;0.59;61.08;99853.47;5037574;28;20045;-88
2022/12/09 10:36:26;;;;;;;38.13;17.70;;;;;;;0.59;61.34;99877.69;5007207;28;20045;-91
2022/12/09 10:38:57;;;;;;;40.92;17.67;;;;;;;0.68;61.42;99878.19;5007386;28;20045;-90
2022/12/09 10:48:31;;;;;;;35.78;16.67;;;;;;;0.58;60.04;99798.06;5017602;28;20427;-91
2022/12/09 10:51:58;;;;;;;35.33;16.20;;;;;;;1.02;60.00;99863.03;4966740;28;20046;-91
2022/12/09 10:58:14;;;;;;;32.53;14.80;;;;;;;1.18;59.57;99856.91;5020842;28;20470;-88
2022/12/09 11:01:04;;;;;;;;;;;;;;;1.03;60.27;99853.13;5002982;28;20095;-90
2022/12/09 11:03:50;;;;;;;31.98;14.52;;;;;;;1.08;59.72;99845.13;5005695;28;19927;-93
2022/12/09 11:06:31;;;;;;;31.38;16.00;;;;;;;1.07;59.48;99857.78;5065047;22;20131;31
2022/12/09 11:09:00;;;;;;;34.75;15.60;;;;;;;0.85;60.13;99851.38;4960818;28;20066;-87
2022/12/09 11:12:07;;;;;;;31.48;14.57;;;;;;;0.85;59.94;99856.75;5028678;23;20423;-89
2022/12/09 11:15:17;;;;;;;28.45;14.68;;;;;;;0.32;60.19;99782.41;4889218;29;20063;-92
2022/12/09 11:18:06;;;;;;;27.95;14.35;;;;;;;0.78;60.15;99854.19;4896271;29;20135;-90
2022/12/09 11:20:35;;;;;;;33.42;15.52;;;;;;;0.26;60.54;99781.44;4886221;29;20062;-86
2022/12/09 11:23:16;;;;;;;32.53;15.65;;;;;;;0.81;60.57;99851.03;4900750;29;20060;-89
2022/12/09 11:26:06;;;;;;;34.72;16.55;;;;;;;0.72;60.83;99841.66;5003523;23;20050;-88
2022/12/09 11:28:38;;;;;;;37.83;17.02;;;;;;;0.45;60.92;99815.25;5018791;23;20140;-86
2022/12/09 11:31:23;;;;;;;42.30;18.92;;;;;;;0.59;60.94;99847.28;5028296;23;20077;-90
2022/12/09 11:34:13;;;;;;;39.95;18.52;;;;;;;0.58;61.23;99842.97;5030781;23;20118;-88
2022/12/09 11:43:28;;;;;;;38.83;18.17;;;;;;;0.66;61.68;99815.69;5043299;22;20053;-92
2022/12/09 11:45:54;;;;;;;40.92;18.02;;;;;;;0.41;61.12;99770.25;4944276;29;20055;-91
2022/12/09 11:52:44;;;;;;;42.17;18.90;;;;;;;0.60;61.30;99812.09;5098544;22;20085;-88
2022/12/09 11:55:46;;;;;;;41.95;18.40;;;;;;;0.42;61.64;99814.91;4976338;28;20050;-91
2022/12/09 11:58:47;;;;;;;36.35;17.13;;;;;;;0.44;61.85;99812.81;5008442;23;20047;-90
2022/12/09 12:01:36;;;;;;;39.33;16.83;;;;;;;0.22;61.64;99762.28;5026344;23;20052;-91
2022/12/09 12:09:59;;;;;;;34.78;16.48;;;;;;;0.25;61.23;99797.84;5039262;28;20045;-91
2022/12/09 12:13:16;;;;;;;41.05;17.20;;;;;;;0.33;61.54;99814.44;5043223;28;20402;-90
2022/12/09 12:16:33;;;;;;;34.17;16.85;;;;;;;0.39;61.14;99818.88;5005811;23;20057;-90
2022/12/09 12:19:30;;;;;;;43.65;17.42;;;;;;;0.49;61.08;99812.09;5165509;22;20084;-89
2022/12/09 12:26:43;;;;;;;38.47;16.65;;;;;;;0.54;61.01;99810.34;5066883;28;20080;-86
2022/12/09 12:29:46;;;;;;;36.63;15.85;;;;;;;0.53;61.01;99810.56;5076050;28;20080;-91
2022/12/09 12:40:19;;;;;;;47.00;19.17;;;;;;;0.42;60.97;99802.25;5038610;28;20029;-86
2022/12/09 12:47:33;;;;;;;46.70;18.15;;;;;;;-0.05;60.46;99704.69;5036927;28;20044;-86
2022/12/09 12:50:24;;;;;;;39.10;16.67;;;;;;;0.50;60.87;99808.34;4993434;28;20184;-88
2022/12/09 12:53:56;;;;;;;45.28;17.83;;;;;;;0.14;61.89;99810.22;5001611;28;20041;-88
2022/12/09 12:57:22;;;;;;;40.90;16.40;;;;;;;0.05;62.39;99809.72;5035898;28;20466;-89
2022/12/09 12:59:55;;;;;;;;;;;;;;;-0.03;62.82;99824.34;5001141;28;20515;-88
2022/12/09 13:02:34;;;;;;;42.70;17.17;;;;;;;0.07;62.70;99818.41;4988240;28;19970;-93
2022/12/09 13:11:53;;;;;;;39.00;17.88;;;;;;;-0.16;62.97;99810.28;5041361;28;20049;-91
2022/12/09 13:14:39;;;;;;;46.45;19.40;;;;;;;-0.11;63.00;99813.09;5025958;28;20404;-91
2022/12/09 13:17:13;;;;;;;42.20;18.30;;;;;;;-0.47;62.84;99770.00;5057422;23;20105;-93
2022/12/09 13:20:00;;;;;;;44.58;18.73;;;;;;;-0.21;62.91;99789.47;5061300;28;20048;-90